sensor_id;sensor_type;location;lat;lon;timestamp;P1;durP1;ratioP1;P2;durP2;ratioP2
18286;SDS011;9269;50.838;12.094;2024-03-07T00:01:48;17.23;;;11.70;;
18286;SDS011;9269;50.838;12.094;2024-03-07T00:04:20;15.07;;;12.10;;
18286;SDS011;9269;50.838;12.094;2024-03-07T00:06:51;16.93;;;12.03;;
18286;SDS011;9269;50.838;12.094;2024-03-07T00:09:20;15.13;;;11.63;;
18286;SDS011;9269;50.838;12.094;2024-03-07T00:11:51;14.63;;;11.70;;
18286;SDS011;9269;50.838;12.094;2024-03-07T00:14:20;17.07;;;12.07;;
18286;SDS011;9269;50.838;12.094;2024-03-07T00:20:56;15.83;;;11.10;;
18286;SDS011;9269;50.838;12.094;2024-03-07T00:23:27;15.60;;;11.67;;
18286;SDS011;9269;50.838;12.094;2024-03-07T00:25:58;14.63;;;11.40;;
18286;SDS011;9269;50.838;12.094;2024-03-07T00:28:28;13.90;;;11.60;;
18286;SDS011;9269;50.838;12.094;2024-03-07T00:30:59;13.23;;;10.73;;
18286;SDS011;9269;50.838;12.094;2024-03-07T00:33:27;14.20;;;11.37;;
18286;SDS011;9269;50.838;12.094;2024-03-07T00:36:17;15.33;;;12.07;;
18286;SDS011;9269;50.838;12.094;2024-03-07T00:38:48;13.70;;;11.40;;
18286;SDS011;9269;50.838;12.094;2024-03-07T00:41:18;14.50;;;11.47;;
18286;SDS011;9269;50.838;12.094;2024-03-07T00:43:48;16.80;;;11.47;;
18286;SDS011;9269;50.838;12.094;2024-03-07T00:46:18;15.57;;;12.23;;
18286;SDS011;9269;50.838;12.094;2024-03-07T00:48:47;14.93;;;11.83;;
18286;SDS011;9269;50.838;12.094;2024-03-07T00:51:17;14.43;;;11.27;;
18286;SDS011;9269;50.838;12.094;2024-03-07T00:53:46;14.23;;;11.70;;
18286;SDS011;9269;50.838;12.094;2024-03-07T00:56:15;14.37;;;11.97;;
18286;SDS011;9269;50.838;12.094;2024-03-07T00:58:43;13.80;;;10.97;;
18286;SDS011;9269;50.838;12.094;2024-03-07T01:01:12;14.57;;;11.47;;
18286;SDS011;9269;50.838;12.094;2024-03-07T01:03:45;16.83;;;12.67;;
18286;SDS011;9269;50.838;12.094;2024-03-07T01:06:15;14.60;;;11.70;;
18286;SDS011;9269;50.838;12.094;2024-03-07T01:08:46;15.20;;;11.97;;
18286;SDS011;9269;50.838;12.094;2024-03-07T01:11:15;15.10;;;12.00;;
18286;SDS011;9269;50.838;12.094;2024-03-07T01:13:44;14.20;;;11.20;;
18286;SDS011;9269;50.838;12.094;2024-03-07T01:16:12;14.77;;;12.47;;
18286;SDS011;9269;50.838;12.094;2024-03-07T01:18:41;15.33;;;12.00;;
18286;SDS011;9269;50.838;12.094;2024-03-07T01:21:09;15.47;;;12.30;;
18286;SDS011;9269;50.838;12.094;2024-03-07T01:24:00;14.23;;;11.57;;
18286;SDS011;9269;50.838;12.094;2024-03-07T01:26:28;15.70;;;11.87;;
18286;SDS011;9269;50.838;12.094;2024-03-07T01:29:00;16.20;;;12.37;;
18286;SDS011;9269;50.838;12.094;2024-03-07T01:31:32;15.03;;;11.23;;
18286;SDS011;9269;50.838;12.094;2024-03-07T01:34:01;14.97;;;11.77;;
18286;SDS011;9269;50.838;12.094;2024-03-07T01:36:30;16.23;;;11.90;;
18286;SDS011;9269;50.838;12.094;2024-03-07T01:39:00;15.63;;;12.70;;
18286;SDS011;9269;50.838;12.094;2024-03-07T01:41:47;15.47;;;11.80;;
18286;SDS011;9269;50.838;12.094;2024-03-07T01:44:16;15.67;;;12.20;;
18286;SDS011;9269;50.838;12.094;2024-03-07T01:46:44;15.17;;;11.77;;
18286;SDS011;9269;50.838;12.094;2024-03-07T01:49:16;15.47;;;12.23;;
18286;SDS011;9269;50.838;12.094;2024-03-07T01:51:46;16.60;;;13.00;;
18286;SDS011;9269;50.838;12.094;2024-03-07T01:54:17;15.33;;;12.23;;
18286;SDS011;9269;50.838;12.094;2024-03-07T01:56:46;15.43;;;12.80;;
18286;SDS011;9269;50.838;12.094;2024-03-07T01:59:15;15.00;;;12.17;;
18286;SDS011;9269;50.838;12.094;2024-03-07T02:01:44;17.50;;;12.73;;
18286;SDS011;9269;50.838;12.094;2024-03-07T02:04:13;14.90;;;12.13;;
18286;SDS011;9269;50.838;12.094;2024-03-07T02:06:42;15.67;;;12.30;;
18286;SDS011;9269;50.838;12.094;2024-03-07T02:09:13;17.67;;;13.43;;
18286;SDS011;9269;50.838;12.094;2024-03-07T02:11:48;16.87;;;13.10;;
18286;SDS011;9269;50.838;12.094;2024-03-07T02:14:19;18.23;;;13.37;;
18286;SDS011;9269;50.838;12.094;2024-03-07T02:16:50;17.73;;;13.23;;
18286;SDS011;9269;50.838;12.094;2024-03-07T02:19:19;17.37;;;13.03;;
18286;SDS011;9269;50.838;12.094;2024-03-07T02:21:49;18.63;;;13.53;;
18286;SDS011;9269;50.838;12.094;2024-03-07T02:24:17;18.40;;;13.03;;
18286;SDS011;9269;50.838;12.094;2024-03-07T02:26:45;16.40;;;12.70;;
18286;SDS011;9269;50.838;12.094;2024-03-07T02:29:33;16.27;;;13.37;;
18286;SDS011;9269;50.838;12.094;2024-03-07T02:32:03;17.60;;;13.30;;
18286;SDS011;9269;50.838;12.094;2024-03-07T02:34:33;19.07;;;13.40;;
18286;SDS011;9269;50.838;12.094;2024-03-07T02:37:05;18.10;;;13.00;;
18286;SDS011;9269;50.838;12.094;2024-03-07T02:39:35;16.47;;;13.37;;
18286;SDS011;9269;50.838;12.094;2024-03-07T02:42:04;18.47;;;14.20;;
18286;SDS011;9269;50.838;12.094;2024-03-07T02:44:33;18.20;;;13.70;;
18286;SDS011;9269;50.838;12.094;2024-03-07T02:47:17;19.47;;;14.63;;
18286;SDS011;9269;50.838;12.094;2024-03-07T02:49:46;17.60;;;13.23;;
18286;SDS011;9269;50.838;12.094;2024-03-07T02:52:18;19.73;;;14.10;;
18286;SDS011;9269;50.838;12.094;2024-03-07T02:54:50;18.47;;;13.80;;
18286;SDS011;9269;50.838;12.094;2024-03-07T02:57:21;20.77;;;14.63;;
18286;SDS011;9269;50.838;12.094;2024-03-07T02:59:50;20.93;;;15.37;;
18286;SDS011;9269;50.838;12.094;2024-03-07T03:02:18;21.00;;;15.00;;
18286;SDS011;9269;50.838;12.094;2024-03-07T03:04:47;23.97;;;16.83;;
18286;SDS011;9269;50.838;12.094;2024-03-07T03:07:15;26.10;;;16.20;;
18286;SDS011;9269;50.838;12.094;2024-03-07T03:09:46;27.07;;;18.50;;
18286;SDS011;9269;50.838;12.094;2024-03-07T03:12:15;25.00;;;18.03;;
18286;SDS011;9269;50.838;12.094;2024-03-07T03:14:54;26.43;;;18.27;;
18286;SDS011;9269;50.838;12.094;2024-03-07T03:17:24;27.50;;;17.73;;
18286;SDS011;9269;50.838;12.094;2024-03-07T03:19:54;28.97;;;18.53;;
18286;SDS011;9269;50.838;12.094;2024-03-07T03:22:24;26.10;;;17.40;;
18286;SDS011;9269;50.838;12.094;2024-03-07T03:24:54;30.20;;;17.77;;
18286;SDS011;9269;50.838;12.094;2024-03-07T03:27:23;26.40;;;18.03;;
18286;SDS011;9269;50.838;12.094;2024-03-07T03:29:51;28.10;;;19.53;;
18286;SDS011;9269;50.838;12.094;2024-03-07T03:32:20;28.77;;;19.07;;
18286;SDS011;9269;50.838;12.094;2024-03-07T03:35:05;28.17;;;18.90;;
18286;SDS011;9269;50.838;12.094;2024-03-07T03:37:36;26.37;;;18.23;;
18286;SDS011;9269;50.838;12.094;2024-03-07T03:40:08;28.97;;;19.03;;
18286;SDS011;9269;50.838;12.094;2024-03-07T03:42:38;27.43;;;18.00;;
18286;SDS011;9269;50.838;12.094;2024-03-07T03:45:09;25.87;;;18.17;;
18286;SDS011;9269;50.838;12.094;2024-03-07T03:47:41;27.70;;;18.37;;
18286;SDS011;9269;50.838;12.094;2024-03-07T03:50:11;28.57;;;18.80;;
18286;SDS011;9269;50.838;12.094;2024-03-07T03:52:56;27.20;;;17.87;;
18286;SDS011;9269;50.838;12.094;2024-03-07T03:55:26;28.90;;;18.97;;
18286;SDS011;9269;50.838;12.094;2024-03-07T03:57:57;29.03;;;19.43;;
18286;SDS011;9269;50.838;12.094;2024-03-07T04:00:28;30.77;;;19.63;;
18286;SDS011;9269;50.838;12.094;2024-03-07T04:03:00;29.33;;;18.53;;
18286;SDS011;9269;50.838;12.094;2024-03-07T04:05:31;30.17;;;18.87;;
18286;SDS011;9269;50.838;12.094;2024-03-07T04:08:00;29.57;;;17.17;;
18286;SDS011;9269;50.838;12.094;2024-03-07T04:10:30;26.27;;;17.77;;
18286;SDS011;9269;50.838;12.094;2024-03-07T04:12:58;31.57;;;18.90;;
18286;SDS011;9269;50.838;12.094;2024-03-07T04:15:27;29.63;;;18.00;;
18286;SDS011;9269;50.838;12.094;2024-03-07T04:18:02;26.97;;;17.93;;
18286;SDS011;9269;50.838;12.094;2024-03-07T04:20:32;27.30;;;17.70;;
18286;SDS011;9269;50.838;12.094;2024-03-07T04:23:02;28.87;;;18.83;;
18286;SDS011;9269;50.838;12.094;2024-03-07T04:25:33;28.20;;;17.83;;
18286;SDS011;9269;50.838;12.094;2024-03-07T04:28:05;31.30;;;18.73;;
18286;SDS011;9269;50.838;12.094;2024-03-07T04:30:34;28.73;;;18.57;;
18286;SDS011;9269;50.838;12.094;2024-03-07T04:33:02;27.93;;;17.97;;
18286;SDS011;9269;50.838;12.094;2024-03-07T04:35:33;28.33;;;19.07;;
18286;SDS011;9269;50.838;12.094;2024-03-07T04:38:03;29.70;;;18.77;;
18286;SDS011;9269;50.838;12.094;2024-03-07T04:40:57;29.00;;;17.80;;
18286;SDS011;9269;50.838;12.094;2024-03-07T04:43:28;28.40;;;19.13;;
18286;SDS011;9269;50.838;12.094;2024-03-07T04:45:59;32.80;;;19.10;;
18286;SDS011;9269;50.838;12.094;2024-03-07T04:48:30;26.73;;;18.87;;
18286;SDS011;9269;50.838;12.094;2024-03-07T04:51:02;30.57;;;19.63;;
18286;SDS011;9269;50.838;12.094;2024-03-07T04:53:31;29.00;;;18.03;;
18286;SDS011;9269;50.838;12.094;2024-03-07T04:56:16;31.73;;;19.70;;
18286;SDS011;9269;50.838;12.094;2024-03-07T04:58:45;29.90;;;19.57;;
18286;SDS011;9269;50.838;12.094;2024-03-07T05:01:33;29.50;;;18.37;;
18286;SDS011;9269;50.838;12.094;2024-03-07T05:04:05;28.70;;;19.40;;
18286;SDS011;9269;50.838;12.094;2024-03-07T05:06:35;32.50;;;20.50;;
18286;SDS011;9269;50.838;12.094;2024-03-07T05:09:07;32.73;;;20.37;;
18286;SDS011;9269;50.838;12.094;2024-03-07T05:11:41;34.07;;;22.70;;
18286;SDS011;9269;50.838;12.094;2024-03-07T05:14:09;32.47;;;21.00;;
18286;SDS011;9269;50.838;12.094;2024-03-07T05:16:55;29.80;;;20.73;;
18286;SDS011;9269;50.838;12.094;2024-03-07T05:19:33;33.77;;;21.30;;
18286;SDS011;9269;50.838;12.094;2024-03-07T05:22:02;32.13;;;20.37;;
18286;SDS011;9269;50.838;12.094;2024-03-07T05:24:35;32.07;;;20.47;;
18286;SDS011;9269;50.838;12.094;2024-03-07T05:27:07;33.67;;;22.10;;
18286;SDS011;9269;50.838;12.094;2024-03-07T05:29:40;31.87;;;21.17;;
18286;SDS011;9269;50.838;12.094;2024-03-07T05:32:20;82.37;;;52.00;;
18286;SDS011;9269;50.838;12.094;2024-03-07T05:34:50;58.17;;;37.53;;
18286;SDS011;9269;50.838;12.094;2024-03-07T05:37:20;48.97;;;32.90;;
18286;SDS011;9269;50.838;12.094;2024-03-07T05:39:50;44.93;;;30.33;;
18286;SDS011;9269;50.838;12.094;2024-03-07T05:42:21;59.47;;;40.27;;
18286;SDS011;9269;50.838;12.094;2024-03-07T05:44:51;52.47;;;35.60;;
18286;SDS011;9269;50.838;12.094;2024-03-07T05:47:23;46.27;;;31.10;;
18286;SDS011;9269;50.838;12.094;2024-03-07T05:49:55;46.53;;;31.90;;
18286;SDS011;9269;50.838;12.094;2024-03-07T05:52:27;48.50;;;34.03;;
18286;SDS011;9269;50.838;12.094;2024-03-07T05:54:58;37.20;;;25.10;;
18286;SDS011;9269;50.838;12.094;2024-03-07T05:57:28;40.70;;;26.37;;
18286;SDS011;9269;50.838;12.094;2024-03-07T05:59:57;34.60;;;24.73;;
18286;SDS011;9269;50.838;12.094;2024-03-07T06:02:25;34.63;;;22.97;;
18286;SDS011;9269;50.838;12.094;2024-03-07T06:04:54;34.57;;;22.70;;
18286;SDS011;9269;50.838;12.094;2024-03-07T06:07:23;35.10;;;23.00;;
18286;SDS011;9269;50.838;12.094;2024-03-07T06:09:52;31.10;;;20.97;;
18286;SDS011;9269;50.838;12.094;2024-03-07T06:12:23;31.93;;;21.23;;
18286;SDS011;9269;50.838;12.094;2024-03-07T06:14:58;32.37;;;21.67;;
18286;SDS011;9269;50.838;12.094;2024-03-07T06:17:29;30.03;;;20.20;;
18286;SDS011;9269;50.838;12.094;2024-03-07T06:19:58;32.13;;;20.27;;
18286;SDS011;9269;50.838;12.094;2024-03-07T06:22:27;30.43;;;19.90;;
18286;SDS011;9269;50.838;12.094;2024-03-07T06:24:56;33.93;;;20.90;;
18286;SDS011;9269;50.838;12.094;2024-03-07T06:27:31;30.63;;;20.77;;
18286;SDS011;9269;50.838;12.094;2024-03-07T06:30:23;34.60;;;21.43;;
18286;SDS011;9269;50.838;12.094;2024-03-07T06:32:55;30.60;;;19.90;;
18286;SDS011;9269;50.838;12.094;2024-03-07T06:35:27;36.63;;;22.90;;
18286;SDS011;9269;50.838;12.094;2024-03-07T06:37:58;37.17;;;23.27;;
18286;SDS011;9269;50.838;12.094;2024-03-07T06:40:29;34.40;;;22.53;;
18286;SDS011;9269;50.838;12.094;2024-03-07T06:42:58;37.33;;;23.27;;
18286;SDS011;9269;50.838;12.094;2024-03-07T06:45:29;37.33;;;23.33;;
18286;SDS011;9269;50.838;12.094;2024-03-07T06:47:59;34.13;;;23.20;;
18286;SDS011;9269;50.838;12.094;2024-03-07T06:50:28;34.07;;;22.50;;
18286;SDS011;9269;50.838;12.094;2024-03-07T06:53:07;38.30;;;23.63;;
18286;SDS011;9269;50.838;12.094;2024-03-07T06:55:39;34.00;;;23.83;;
18286;SDS011;9269;50.838;12.094;2024-03-07T06:58:10;39.20;;;23.63;;
18286;SDS011;9269;50.838;12.094;2024-03-07T07:00:43;35.73;;;23.20;;
18286;SDS011;9269;50.838;12.094;2024-03-07T07:03:12;37.93;;;23.90;;
18286;SDS011;9269;50.838;12.094;2024-03-07T07:05:41;37.30;;;23.77;;
18286;SDS011;9269;50.838;12.094;2024-03-07T07:08:11;40.10;;;24.90;;
18286;SDS011;9269;50.838;12.094;2024-03-07T07:10:40;38.57;;;24.67;;
18286;SDS011;9269;50.838;12.094;2024-03-07T07:13:28;44.87;;;27.37;;
18286;SDS011;9269;50.838;12.094;2024-03-07T07:16:02;38.00;;;24.43;;
18286;SDS011;9269;50.838;12.094;2024-03-07T07:18:34;38.03;;;24.77;;
18286;SDS011;9269;50.838;12.094;2024-03-07T07:21:05;34.83;;;23.63;;
18286;SDS011;9269;50.838;12.094;2024-03-07T07:23:39;37.67;;;25.47;;
18286;SDS011;9269;50.838;12.094;2024-03-07T07:26:08;37.17;;;26.67;;
18286;SDS011;9269;50.838;12.094;2024-03-07T07:28:37;37.03;;;25.60;;
18286;SDS011;9269;50.838;12.094;2024-03-07T07:31:07;40.63;;;26.77;;
18286;SDS011;9269;50.838;12.094;2024-03-07T07:33:36;36.50;;;26.57;;
18286;SDS011;9269;50.838;12.094;2024-03-07T07:36:07;38.77;;;25.43;;
18286;SDS011;9269;50.838;12.094;2024-03-07T07:38:38;40.30;;;26.33;;
18286;SDS011;9269;50.838;12.094;2024-03-07T07:41:08;38.97;;;26.57;;
18286;SDS011;9269;50.838;12.094;2024-03-07T07:43:40;34.37;;;24.73;;
18286;SDS011;9269;50.838;12.094;2024-03-07T07:46:11;35.93;;;26.13;;
18286;SDS011;9269;50.838;12.094;2024-03-07T07:48:40;38.63;;;26.87;;
18286;SDS011;9269;50.838;12.094;2024-03-07T07:51:08;33.67;;;25.00;;
18286;SDS011;9269;50.838;12.094;2024-03-07T07:53:37;30.10;;;21.00;;
18286;SDS011;9269;50.838;12.094;2024-03-07T07:56:06;31.33;;;23.83;;
18286;SDS011;9269;50.838;12.094;2024-03-07T07:58:39;32.70;;;23.90;;
18286;SDS011;9269;50.838;12.094;2024-03-07T08:01:11;30.73;;;22.23;;
18286;SDS011;9269;50.838;12.094;2024-03-07T08:03:45;32.60;;;23.67;;
18286;SDS011;9269;50.838;12.094;2024-03-07T08:06:17;32.77;;;23.73;;
18286;SDS011;9269;50.838;12.094;2024-03-07T08:08:45;31.07;;;23.30;;
18286;SDS011;9269;50.838;12.094;2024-03-07T08:11:14;30.23;;;21.93;;
18286;SDS011;9269;50.838;12.094;2024-03-07T08:13:42;30.87;;;23.20;;
18286;SDS011;9269;50.838;12.094;2024-03-07T08:16:32;33.13;;;22.03;;
18286;SDS011;9269;50.838;12.094;2024-03-07T08:19:22;31.53;;;23.83;;
18286;SDS011;9269;50.838;12.094;2024-03-07T08:21:54;32.20;;;22.73;;
18286;SDS011;9269;50.838;12.094;2024-03-07T08:24:25;27.03;;;21.23;;
18286;SDS011;9269;50.838;12.094;2024-03-07T08:26:56;26.67;;;20.07;;
18286;SDS011;9269;50.838;12.094;2024-03-07T08:29:28;28.67;;;19.53;;
18286;SDS011;9269;50.838;12.094;2024-03-07T08:31:58;28.73;;;20.73;;
18286;SDS011;9269;50.838;12.094;2024-03-07T08:34:27;26.33;;;19.53;;
18286;SDS011;9269;50.838;12.094;2024-03-07T08:36:55;25.13;;;18.67;;
18286;SDS011;9269;50.838;12.094;2024-03-07T08:39:23;22.43;;;17.30;;
18286;SDS011;9269;50.838;12.094;2024-03-07T08:41:53;23.87;;;17.47;;
18286;SDS011;9269;50.838;12.094;2024-03-07T08:44:23;23.77;;;18.10;;
18286;SDS011;9269;50.838;12.094;2024-03-07T08:46:53;24.60;;;19.40;;
18286;SDS011;9269;50.838;12.094;2024-03-07T08:49:24;25.30;;;19.87;;
18286;SDS011;9269;50.838;12.094;2024-03-07T08:51:53;21.63;;;16.73;;
18286;SDS011;9269;50.838;12.094;2024-03-07T08:54:26;22.50;;;17.83;;
18286;SDS011;9269;50.838;12.094;2024-03-07T08:56:55;20.57;;;15.27;;
18286;SDS011;9269;50.838;12.094;2024-03-07T08:59:23;20.23;;;15.90;;
18286;SDS011;9269;50.838;12.094;2024-03-07T09:01:52;17.97;;;15.90;;
18286;SDS011;9269;50.838;12.094;2024-03-07T09:04:24;16.70;;;13.30;;
18286;SDS011;9269;50.838;12.094;2024-03-07T09:06:55;18.97;;;14.00;;
18286;SDS011;9269;50.838;12.094;2024-03-07T09:09:26;18.43;;;14.53;;
18286;SDS011;9269;50.838;12.094;2024-03-07T09:11:57;17.17;;;14.10;;
18286;SDS011;9269;50.838;12.094;2024-03-07T09:14:28;20.07;;;14.33;;
18286;SDS011;9269;50.838;12.094;2024-03-07T09:16:57;16.50;;;14.13;;
18286;SDS011;9269;50.838;12.094;2024-03-07T09:19:27;18.00;;;14.10;;
18286;SDS011;9269;50.838;12.094;2024-03-07T09:21:55;18.73;;;14.63;;
18286;SDS011;9269;50.838;12.094;2024-03-07T09:24:43;21.97;;;17.70;;
18286;SDS011;9269;50.838;12.094;2024-03-07T09:27:15;22.23;;;17.37;;
18286;SDS011;9269;50.838;12.094;2024-03-07T09:29:49;18.13;;;15.03;;
18286;SDS011;9269;50.838;12.094;2024-03-07T09:32:21;18.20;;;15.90;;
18286;SDS011;9269;50.838;12.094;2024-03-07T09:34:54;20.07;;;16.33;;
18286;SDS011;9269;50.838;12.094;2024-03-07T09:37:22;16.90;;;14.87;;
18286;SDS011;9269;50.838;12.094;2024-03-07T09:39:51;16.77;;;14.27;;
18286;SDS011;9269;50.838;12.094;2024-03-07T09:42:20;15.90;;;12.43;;
18286;SDS011;9269;50.838;12.094;2024-03-07T09:44:50;16.07;;;13.67;;
18286;SDS011;9269;50.838;12.094;2024-03-07T09:47:22;19.87;;;15.33;;
18286;SDS011;9269;50.838;12.094;2024-03-07T09:49:55;19.23;;;15.60;;
18286;SDS011;9269;50.838;12.094;2024-03-07T09:52:27;19.70;;;14.93;;
18286;SDS011;9269;50.838;12.094;2024-03-07T09:54:59;17.87;;;14.50;;
18286;SDS011;9269;50.838;12.094;2024-03-07T09:57:27;20.47;;;15.70;;
18286;SDS011;9269;50.838;12.094;2024-03-07T10:00:04;20.37;;;15.03;;
18286;SDS011;9269;50.838;12.094;2024-03-07T10:02:36;18.40;;;15.20;;
18286;SDS011;9269;50.838;12.094;2024-03-07T10:05:09;17.53;;;14.50;;
18286;SDS011;9269;50.838;12.094;2024-03-07T10:07:43;20.20;;;15.77;;
18286;SDS011;9269;50.838;12.094;2024-03-07T10:10:14;18.10;;;15.27;;
18286;SDS011;9269;50.838;12.094;2024-03-07T10:12:45;21.47;;;17.33;;
18286;SDS011;9269;50.838;12.094;2024-03-07T10:15:16;18.67;;;14.93;;
18286;SDS011;9269;50.838;12.094;2024-03-07T10:17:46;20.50;;;16.93;;
18286;SDS011;9269;50.838;12.094;2024-03-07T10:20:19;23.57;;;17.77;;
18286;SDS011;9269;50.838;12.094;2024-03-07T10:22:50;74.80;;;39.63;;
18286;SDS011;9269;50.838;12.094;2024-03-07T10:25:19;26.83;;;21.53;;
18286;SDS011;9269;50.838;12.094;2024-03-07T10:27:51;19.43;;;17.33;;
18286;SDS011;9269;50.838;12.094;2024-03-07T10:30:22;21.47;;;15.37;;
18286;SDS011;9269;50.838;12.094;2024-03-07T10:32:55;24.87;;;18.00;;
18286;SDS011;9269;50.838;12.094;2024-03-07T10:35:31;24.33;;;19.67;;
18286;SDS011;9269;50.838;12.094;2024-03-07T10:38:02;25.97;;;19.97;;
18286;SDS011;9269;50.838;12.094;2024-03-07T10:40:38;26.90;;;18.67;;
18286;SDS011;9269;50.838;12.094;2024-03-07T10:43:10;19.47;;;15.47;;
18286;SDS011;9269;50.838;12.094;2024-03-07T10:45:43;17.43;;;14.43;;
18286;SDS011;9269;50.838;12.094;2024-03-07T10:48:16;18.23;;;14.30;;
18286;SDS011;9269;50.838;12.094;2024-03-07T10:50:54;17.43;;;15.37;;
18286;SDS011;9269;50.838;12.094;2024-03-07T10:53:40;19.50;;;14.43;;
18286;SDS011;9269;50.838;12.094;2024-03-07T10:56:33;16.13;;;13.47;;
18286;SDS011;9269;50.838;12.094;2024-03-07T10:59:16;14.23;;;12.57;;
18286;SDS011;9269;50.838;12.094;2024-03-07T11:01:49;16.00;;;12.53;;
18286;SDS011;9269;50.838;12.094;2024-03-07T11:04:27;16.87;;;12.93;;
18286;SDS011;9269;50.838;12.094;2024-03-07T11:06:57;16.00;;;13.07;;
18286;SDS011;9269;50.838;12.094;2024-03-07T11:09:44;15.70;;;12.07;;
18286;SDS011;9269;50.838;12.094;2024-03-07T11:12:14;16.30;;;12.77;;
18286;SDS011;9269;50.838;12.094;2024-03-07T11:14:46;17.87;;;13.43;;
18286;SDS011;9269;50.838;12.094;2024-03-07T11:17:19;19.13;;;13.90;;
18286;SDS011;9269;50.838;12.094;2024-03-07T11:19:52;24.87;;;17.30;;
18286;SDS011;9269;50.838;12.094;2024-03-07T11:22:32;17.50;;;13.03;;
18286;SDS011;9269;50.838;12.094;2024-03-07T11:25:02;18.30;;;13.27;;
18286;SDS011;9269;50.838;12.094;2024-03-07T11:27:36;18.67;;;13.60;;
18286;SDS011;9269;50.838;12.094;2024-03-07T11:30:06;22.77;;;15.70;;
18286;SDS011;9269;50.838;12.094;2024-03-07T11:32:38;18.90;;;14.20;;
18286;SDS011;9269;50.838;12.094;2024-03-07T11:35:11;19.37;;;13.93;;
18286;SDS011;9269;50.838;12.094;2024-03-07T11:37:43;19.73;;;14.47;;
18286;SDS011;9269;50.838;12.094;2024-03-07T11:43:19;22.30;;;14.90;;
18286;SDS011;9269;50.838;12.094;2024-03-07T11:45:50;19.50;;;13.57;;
18286;SDS011;9269;50.838;12.094;2024-03-07T11:48:38;19.90;;;14.03;;
18286;SDS011;9269;50.838;12.094;2024-03-07T11:51:08;17.97;;;13.63;;
18286;SDS011;9269;50.838;12.094;2024-03-07T11:53:41;16.60;;;12.47;;
18286;SDS011;9269;50.838;12.094;2024-03-07T11:56:11;18.00;;;13.50;;
18286;SDS011;9269;50.838;12.094;2024-03-07T11:58:46;17.13;;;13.60;;
18286;SDS011;9269;50.838;12.094;2024-03-07T12:01:26;18.83;;;15.07;;
18286;SDS011;9269;50.838;12.094;2024-03-07T12:03:57;21.07;;;16.70;;
18286;SDS011;9269;50.838;12.094;2024-03-07T12:06:30;16.17;;;14.10;;
18286;SDS011;9269;50.838;12.094;2024-03-07T12:09:05;18.13;;;14.17;;
18286;SDS011;9269;50.838;12.094;2024-03-07T12:11:42;23.53;;;18.17;;
18286;SDS011;9269;50.838;12.094;2024-03-07T12:14:12;21.50;;;17.07;;
18286;SDS011;9269;50.838;12.094;2024-03-07T12:16:40;22.73;;;15.90;;
18286;SDS011;9269;50.838;12.094;2024-03-07T12:19:25;19.27;;;16.00;;
18286;SDS011;9269;50.838;12.094;2024-03-07T12:21:56;18.10;;;14.37;;
18286;SDS011;9269;50.838;12.094;2024-03-07T12:24:31;18.60;;;14.03;;
18286;SDS011;9269;50.838;12.094;2024-03-07T12:27:06;17.17;;;13.43;;
18286;SDS011;9269;50.838;12.094;2024-03-07T12:29:37;15.47;;;12.83;;
18286;SDS011;9269;50.838;12.094;2024-03-07T12:32:11;19.67;;;14.17;;
18286;SDS011;9269;50.838;12.094;2024-03-07T12:34:42;17.10;;;12.80;;
18286;SDS011;9269;50.838;12.094;2024-03-07T12:37:12;19.63;;;13.03;;
18286;SDS011;9269;50.838;12.094;2024-03-07T12:39:45;16.67;;;13.33;;
18286;SDS011;9269;50.838;12.094;2024-03-07T12:42:16;18.03;;;13.40;;
18286;SDS011;9269;50.838;12.094;2024-03-07T12:44:46;18.13;;;13.97;;
18286;SDS011;9269;50.838;12.094;2024-03-07T12:47:18;16.77;;;12.37;;
18286;SDS011;9269;50.838;12.094;2024-03-07T12:49:49;14.77;;;13.07;;
18286;SDS011;9269;50.838;12.094;2024-03-07T12:52:17;15.60;;;12.63;;
18286;SDS011;9269;50.838;12.094;2024-03-07T12:54:47;14.97;;;11.13;;
18286;SDS011;9269;50.838;12.094;2024-03-07T12:57:16;16.13;;;12.57;;
18286;SDS011;9269;50.838;12.094;2024-03-07T12:59:45;17.37;;;13.00;;
18286;SDS011;9269;50.838;12.094;2024-03-07T13:02:14;18.10;;;13.10;;
18286;SDS011;9269;50.838;12.094;2024-03-07T13:04:46;17.73;;;12.87;;
18286;SDS011;9269;50.838;12.094;2024-03-07T13:07:18;15.10;;;12.33;;
18286;SDS011;9269;50.838;12.094;2024-03-07T13:09:51;17.00;;;13.27;;
18286;SDS011;9269;50.838;12.094;2024-03-07T13:12:23;15.60;;;12.73;;
18286;SDS011;9269;50.838;12.094;2024-03-07T13:14:51;15.97;;;12.20;;
18286;SDS011;9269;50.838;12.094;2024-03-07T13:17:20;15.37;;;12.37;;
18286;SDS011;9269;50.838;12.094;2024-03-07T13:19:51;15.67;;;11.93;;
18286;SDS011;9269;50.838;12.094;2024-03-07T13:22:26;14.97;;;11.67;;
18286;SDS011;9269;50.838;12.094;2024-03-07T13:25:17;15.67;;;13.30;;
18286;SDS011;9269;50.838;12.094;2024-03-07T13:27:55;15.17;;;11.93;;
18286;SDS011;9269;50.838;12.094;2024-03-07T13:30:29;18.30;;;13.23;;
18286;SDS011;9269;50.838;12.094;2024-03-07T13:33:00;20.37;;;13.77;;
18286;SDS011;9269;50.838;12.094;2024-03-07T13:35:32;17.53;;;14.83;;
18286;SDS011;9269;50.838;12.094;2024-03-07T13:38:03;18.23;;;15.47;;
18286;SDS011;9269;50.838;12.094;2024-03-07T13:40:33;15.47;;;12.43;;
18286;SDS011;9269;50.838;12.094;2024-03-07T13:43:05;16.33;;;12.10;;
18286;SDS011;9269;50.838;12.094;2024-03-07T13:45:35;13.43;;;11.57;;
18286;SDS011;9269;50.838;12.094;2024-03-07T13:48:09;15.23;;;12.07;;
18286;SDS011;9269;50.838;12.094;2024-03-07T13:50:43;17.27;;;13.63;;
18286;SDS011;9269;50.838;12.094;2024-03-07T13:53:27;18.43;;;14.50;;
18286;SDS011;9269;50.838;12.094;2024-03-07T13:56:17;15.20;;;12.87;;
18286;SDS011;9269;50.838;12.094;2024-03-07T14:02:17;17.47;;;13.93;;
18286;SDS011;9269;50.838;12.094;2024-03-07T14:05:11;17.17;;;13.97;;
18286;SDS011;9269;50.838;12.094;2024-03-07T14:08:20;17.67;;;14.53;;
18286;SDS011;9269;50.838;12.094;2024-03-07T14:11:14;17.70;;;14.20;;
18286;SDS011;9269;50.838;12.094;2024-03-07T14:14:11;17.10;;;14.47;;
18286;SDS011;9269;50.838;12.094;2024-03-07T14:20:50;17.47;;;14.70;;
18286;SDS011;9269;50.838;12.094;2024-03-07T14:23:37;20.07;;;15.70;;
18286;SDS011;9269;50.838;12.094;2024-03-07T14:26:33;16.77;;;14.67;;
18286;SDS011;9269;50.838;12.094;2024-03-07T14:29:21;15.47;;;13.87;;
18286;SDS011;9269;50.838;12.094;2024-03-07T14:31:55;19.03;;;15.27;;
18286;SDS011;9269;50.838;12.094;2024-03-07T14:34:29;17.90;;;15.63;;
18286;SDS011;9269;50.838;12.094;2024-03-07T14:37:09;17.23;;;14.77;;
18286;SDS011;9269;50.838;12.094;2024-03-07T14:39:48;19.27;;;15.40;;
18286;SDS011;9269;50.838;12.094;2024-03-07T14:42:21;19.43;;;15.27;;
18286;SDS011;9269;50.838;12.094;2024-03-07T14:45:11;18.00;;;15.47;;
18286;SDS011;9269;50.838;12.094;2024-03-07T14:47:43;17.23;;;14.30;;
18286;SDS011;9269;50.838;12.094;2024-03-07T14:50:13;17.33;;;15.37;;
18286;SDS011;9269;50.838;12.094;2024-03-07T14:52:45;18.43;;;16.40;;
18286;SDS011;9269;50.838;12.094;2024-03-07T14:55:18;20.13;;;17.07;;
18286;SDS011;9269;50.838;12.094;2024-03-07T14:57:50;20.97;;;16.83;;
18286;SDS011;9269;50.838;12.094;2024-03-07T15:00:18;20.80;;;16.63;;
18286;SDS011;9269;50.838;12.094;2024-03-07T15:03:01;18.93;;;16.40;;
18286;SDS011;9269;50.838;12.094;2024-03-07T15:05:33;20.73;;;16.40;;
18286;SDS011;9269;50.838;12.094;2024-03-07T15:08:02;20.63;;;16.80;;